sensor_id;sensor_type;location;lat;lon;timestamp;pressure;altitude;pressure_sealevel;temperature
80246;BMP280;69558;39.208;-77.226;2023-04-25T00:02:22;100449.22;;;18.57
80246;BMP280;69558;39.208;-77.226;2023-04-25T00:04:48;100457.50;;;18.54
80246;BMP280;69558;39.208;-77.226;2023-04-25T00:07:15;100458.22;;;18.48
80246;BMP280;69558;39.208;-77.226;2023-04-25T00:09:42;100480.91;;;18.56
80246;BMP280;69558;39.208;-77.226;2023-04-25T00:12:08;100466.72;;;18.50
80246;BMP280;69558;39.208;-77.226;2023-04-25T00:14:34;100469.97;;;18.52
80246;BMP280;69558;39.208;-77.226;2023-04-25T00:17:01;100477.47;;;18.55
80246;BMP280;69558;39.208;-77.226;2023-04-25T00:19:28;100479.50;;;18.53
80246;BMP280;69558;39.208;-77.226;2023-04-25T00:21:55;100482.72;;;18.55
80246;BMP280;69558;39.208;-77.226;2023-04-25T00:24:22;100490.81;;;18.54
80246;BMP280;69558;39.208;-77.226;2023-04-25T00:26:48;100478.22;;;18.49
80246;BMP280;69558;39.208;-77.226;2023-04-25T00:29:15;100501.13;;;18.55
80246;BMP280;69558;39.208;-77.226;2023-04-25T00:31:41;100503.75;;;18.55
80246;BMP280;69558;39.208;-77.226;2023-04-25T00:34:07;100510.03;;;18.54
80246;BMP280;69558;39.208;-77.226;2023-04-25T00:36:34;100511.63;;;18.55
80246;BMP280;69558;39.208;-77.226;2023-04-25T00:39:00;100523.97;;;18.55
80246;BMP280;69558;39.208;-77.226;2023-04-25T00:41:26;100523.16;;;18.54
80246;BMP280;69558;39.208;-77.226;2023-04-25T00:43:54;100526.78;;;18.53
80246;BMP280;69558;39.208;-77.226;2023-04-25T00:46:20;100526.13;;;18.51
80246;BMP280;69558;39.208;-77.226;2023-04-25T00:48:46;100527.75;;;18.52
80246;BMP280;69558;39.208;-77.226;2023-04-25T00:51:16;100524.53;;;18.50
80246;BMP280;69558;39.208;-77.226;2023-04-25T00:53:45;100539.47;;;18.50
80246;BMP280;69558;39.208;-77.226;2023-04-25T00:56:12;100540.28;;;18.50
80246;BMP280;69558;39.208;-77.226;2023-04-25T00:58:38;100547.13;;;18.51
80246;BMP280;69558;39.208;-77.226;2023-04-25T01:01:05;100546.31;;;18.51
80246;BMP280;69558;39.208;-77.226;2023-04-25T01:03:33;100538.38;;;18.44
80246;BMP280;69558;39.208;-77.226;2023-04-25T01:06:01;100554.41;;;18.49
80246;BMP280;69558;39.208;-77.226;2023-04-25T01:08:28;100563.09;;;18.50
80246;BMP280;69558;39.208;-77.226;2023-04-25T01:10:54;100564.94;;;18.49
80246;BMP280;69558;39.208;-77.226;2023-04-25T01:13:19;100569.34;;;18.49
80246;BMP280;69558;39.208;-77.226;2023-04-25T01:15:45;100566.72;;;18.49
80246;BMP280;69558;39.208;-77.226;2023-04-25T01:18:11;100570.31;;;18.47
80246;BMP280;69558;39.208;-77.226;2023-04-25T01:20:38;100579.88;;;18.49
80246;BMP280;69558;39.208;-77.226;2023-04-25T01:23:06;100580.69;;;18.49
80246;BMP280;69558;39.208;-77.226;2023-04-25T01:25:32;100590.38;;;18.49
80246;BMP280;69558;39.208;-77.226;2023-04-25T01:27:58;100580.56;;;18.42
80246;BMP280;69558;39.208;-77.226;2023-04-25T01:30:26;100580.56;;;18.42
80246;BMP280;69558;39.208;-77.226;2023-04-25T01:32:55;100587.28;;;18.45
80246;BMP280;69558;39.208;-77.226;2023-04-25T01:35:22;100599.06;;;18.49
80246;BMP280;69558;39.208;-77.226;2023-04-25T01:37:51;100601.69;;;18.49
80246;BMP280;69558;39.208;-77.226;2023-04-25T01:40:18;100603.88;;;18.45
80246;BMP280;69558;39.208;-77.226;2023-04-25T01:42:46;100583.72;;;18.38
80246;BMP280;69558;39.208;-77.226;2023-04-25T01:45:12;100601.84;;;18.47
80246;BMP280;69558;39.208;-77.226;2023-04-25T01:47:39;100604.84;;;18.44
80246;BMP280;69558;39.208;-77.226;2023-04-25T01:50:07;100601.75;;;18.41
80246;BMP280;69558;39.208;-77.226;2023-04-25T01:52:34;100612.53;;;18.46
80246;BMP280;69558;39.208;-77.226;2023-04-25T01:55:01;100615.97;;;18.46
80246;BMP280;69558;39.208;-77.226;2023-04-25T01:57:28;100610.66;;;18.40
80246;BMP280;69558;39.208;-77.226;2023-04-25T02:00:04;100623.84;;;18.46
80246;BMP280;69558;39.208;-77.226;2023-04-25T02:02:32;100619.13;;;18.42
80246;BMP280;69558;39.208;-77.226;2023-04-25T02:04:59;100603.84;;;18.31
80246;BMP280;69558;39.208;-77.226;2023-04-25T02:07:26;100629.50;;;18.43
80246;BMP280;69558;39.208;-77.226;2023-04-25T02:09:52;100625.22;;;18.42
80246;BMP280;69558;39.208;-77.226;2023-04-25T02:12:18;100619.00;;;18.43
80246;BMP280;69558;39.208;-77.226;2023-04-25T02:14:43;100619.94;;;18.42
80246;BMP280;69558;39.208;-77.226;2023-04-25T02:17:10;100615.53;;;18.43
80246;BMP280;69558;39.208;-77.226;2023-04-25T02:19:38;100615.38;;;18.44
80246;BMP280;69558;39.208;-77.226;2023-04-25T02:22:04;100617.19;;;18.44
80246;BMP280;69558;39.208;-77.226;2023-04-25T02:24:30;100612.25;;;18.41
80246;BMP280;69558;39.208;-77.226;2023-04-25T02:26:57;100620.81;;;18.43
80246;BMP280;69558;39.208;-77.226;2023-04-25T02:29:23;100622.56;;;18.42
80246;BMP280;69558;39.208;-77.226;2023-04-25T02:31:50;100619.34;;;18.40
80246;BMP280;69558;39.208;-77.226;2023-04-25T02:34:15;100609.53;;;18.34
80246;BMP280;69558;39.208;-77.226;2023-04-25T02:36:42;100626.19;;;18.41
80246;BMP280;69558;39.208;-77.226;2023-04-25T02:39:08;100618.31;;;18.41
80246;BMP280;69558;39.208;-77.226;2023-04-25T02:41:34;100623.78;;;18.40
80246;BMP280;69558;39.208;-77.226;2023-04-25T02:44:00;100622.97;;;18.39
80246;BMP280;69558;39.208;-77.226;2023-04-25T02:46:27;100623.66;;;18.33
80246;BMP280;69558;39.208;-77.226;2023-04-25T02:48:53;100627.94;;;18.34
80246;BMP280;69558;39.208;-77.226;2023-04-25T02:51:19;100630.97;;;18.38
80246;BMP280;69558;39.208;-77.226;2023-04-25T02:53:45;100623.28;;;18.36
80246;BMP280;69558;39.208;-77.226;2023-04-25T02:56:11;100620.66;;;18.36
80246;BMP280;69558;39.208;-77.226;2023-04-25T02:58:38;100620.66;;;18.36
80246;BMP280;69558;39.208;-77.226;2023-04-25T03:01:04;100601.09;;;18.24
80246;BMP280;69558;39.208;-77.226;2023-04-25T03:03:31;100620.19;;;18.33
80246;BMP280;69558;39.208;-77.226;2023-04-25T03:05:58;100623.50;;;18.35
80246;BMP280;69558;39.208;-77.226;2023-04-25T03:08:24;100626.94;;;18.35
80246;BMP280;69558;39.208;-77.226;2023-04-25T03:10:51;100620.19;;;18.33
80246;BMP280;69558;39.208;-77.226;2023-04-25T03:13:18;100620.41;;;18.31
80246;BMP280;69558;39.208;-77.226;2023-04-25T03:15:44;100631.69;;;18.32
80246;BMP280;69558;39.208;-77.226;2023-04-25T03:18:10;100630.69;;;18.33
80246;BMP280;69558;39.208;-77.226;2023-04-25T03:20:36;100628.59;;;18.28
80246;BMP280;69558;39.208;-77.226;2023-04-25T03:23:02;100634.19;;;18.33
80246;BMP280;69558;39.208;-77.226;2023-04-25T03:25:28;100629.28;;;18.30
80246;BMP280;69558;39.208;-77.226;2023-04-25T03:27:54;100631.22;;;18.28
80246;BMP280;69558;39.208;-77.226;2023-04-25T03:30:20;100632.22;;;18.27
80246;BMP280;69558;39.208;-77.226;2023-04-25T03:32:47;100642.59;;;18.29
80246;BMP280;69558;39.208;-77.226;2023-04-25T03:35:14;100646.66;;;18.31
80246;BMP280;69558;39.208;-77.226;2023-04-25T03:37:40;100639.09;;;18.28
80246;BMP280;69558;39.208;-77.226;2023-04-25T03:40:07;100638.97;;;18.30
80246;BMP280;69558;39.208;-77.226;2023-04-25T03:42:34;100636.47;;;18.28
80246;BMP280;69558;39.208;-77.226;2023-04-25T03:44:59;100639.09;;;18.28
80246;BMP280;69558;39.208;-77.226;2023-04-25T03:47:26;100631.22;;;18.28
80246;BMP280;69558;39.208;-77.226;2023-04-25T03:49:52;100639.03;;;18.22
80246;BMP280;69558;39.208;-77.226;2023-04-25T03:52:18;100649.78;;;18.27
80246;BMP280;69558;39.208;-77.226;2023-04-25T03:54:45;100643.94;;;18.25
80246;BMP280;69558;39.208;-77.226;2023-04-25T03:57:11;100653.22;;;18.27
80246;BMP280;69558;39.208;-77.226;2023-04-25T03:59:38;100645.75;;;18.24
80246;BMP280;69558;39.208;-77.226;2023-04-25T04:02:04;100650.00;;;18.25
80246;BMP280;69558;39.208;-77.226;2023-04-25T04:04:30;100646.56;;;18.25
80246;BMP280;69558;39.208;-77.226;2023-04-25T04:06:56;100646.69;;;18.23
80246;BMP280;69558;39.208;-77.226;2023-04-25T04:09:22;100653.63;;;18.24
80246;BMP280;69558;39.208;-77.226;2023-04-25T04:11:48;100653.63;;;18.24
80246;BMP280;69558;39.208;-77.226;2023-04-25T04:14:15;100657.06;;;18.25
80246;BMP280;69558;39.208;-77.226;2023-04-25T04:16:42;100654.56;;;18.23
80246;BMP280;69558;39.208;-77.226;2023-04-25T04:19:08;100655.41;;;18.24
80246;BMP280;69558;39.208;-77.226;2023-04-25T04:21:34;100656.59;;;18.21
80246;BMP280;69558;39.208;-77.226;2023-04-25T04:23:59;100659.81;;;18.23
80246;BMP280;69558;39.208;-77.226;2023-04-25T04:26:26;100664.25;;;18.23
80246;BMP280;69558;39.208;-77.226;2023-04-25T04:28:52;100661.63;;;18.23
80246;BMP280;69558;39.208;-77.226;2023-04-25T04:31:23;100655.28;;;18.17
80246;BMP280;69558;39.208;-77.226;2023-04-25T04:33:50;100662.84;;;18.20
80246;BMP280;69558;39.208;-77.226;2023-04-25T04:36:18;100664.47;;;18.21
80246;BMP280;69558;39.208;-77.226;2023-04-25T04:38:48;100667.28;;;18.20
80246;BMP280;69558;39.208;-77.226;2023-04-25T04:41:15;100668.09;;;18.20
80246;BMP280;69558;39.208;-77.226;2023-04-25T04:43:42;100677.78;;;18.20
80246;BMP280;69558;39.208;-77.226;2023-04-25T04:46:08;100677.78;;;18.20
80246;BMP280;69558;39.208;-77.226;2023-04-25T04:48:35;100679.25;;;18.14
80246;BMP280;69558;39.208;-77.226;2023-04-25T04:51:02;100674.66;;;18.16
80246;BMP280;69558;39.208;-77.226;2023-04-25T04:53:28;100687.47;;;18.19
80246;BMP280;69558;39.208;-77.226;2023-04-25T04:55:54;100682.19;;;18.19
80246;BMP280;69558;39.208;-77.226;2023-04-25T04:58:21;100661.09;;;18.04
80246;BMP280;69558;39.208;-77.226;2023-04-25T05:00:48;100681.88;;;18.14
80246;BMP280;69558;39.208;-77.226;2023-04-25T05:03:14;100668.94;;;18.12
80246;BMP280;69558;39.208;-77.226;2023-04-25T05:05:41;100667.19;;;18.05
80246;BMP280;69558;39.208;-77.226;2023-04-25T05:08:07;100669.16;;;18.03
80246;BMP280;69558;39.208;-77.226;2023-04-25T05:10:33;100668.03;;;18.05
80246;BMP280;69558;39.208;-77.226;2023-04-25T05:12:59;100663.44;;;17.99
80246;BMP280;69558;39.208;-77.226;2023-04-25T05:15:26;100657.38;;;17.99
80246;BMP280;69558;39.208;-77.226;2023-04-25T05:17:52;100666.53;;;18.03
80246;BMP280;69558;39.208;-77.226;2023-04-25T05:20:19;100664.09;;;18.01
80246;BMP280;69558;39.208;-77.226;2023-04-25T05:22:46;100666.72;;;18.01
80246;BMP280;69558;39.208;-77.226;2023-04-25T05:25:12;100668.38;;;18.02
80246;BMP280;69558;39.208;-77.226;2023-04-25T05:27:38;100667.34;;;18.03
80246;BMP280;69558;39.208;-77.226;2023-04-25T05:30:06;100658.47;;;18.04
80246;BMP280;69558;39.208;-77.226;2023-04-25T05:32:32;100660.13;;;18.05
80246;BMP280;69558;39.208;-77.226;2023-04-25T05:34:59;100657.50;;;18.05
80246;BMP280;69558;39.208;-77.226;2023-04-25T05:37:25;100655.25;;;18.02
80246;BMP280;69558;39.208;-77.226;2023-04-25T05:39:51;100656.69;;;18.05
80246;BMP280;69558;39.208;-77.226;2023-04-25T05:42:18;100665.81;;;18.09
80246;BMP280;69558;39.208;-77.226;2023-04-25T05:44:45;100659.31;;;18.05
80246;BMP280;69558;39.208;-77.226;2023-04-25T05:47:11;100667.50;;;18.10
80246;BMP280;69558;39.208;-77.226;2023-04-25T05:49:37;100658.81;;;18.09
80246;BMP280;69558;39.208;-77.226;2023-04-25T05:52:04;100659.47;;;18.03
80246;BMP280;69558;39.208;-77.226;2023-04-25T05:54:29;100661.47;;;18.01
80246;BMP280;69558;39.208;-77.226;2023-04-25T05:56:58;100659.47;;;18.03
80246;BMP280;69558;39.208;-77.226;2023-04-25T05:59:24;100667.63;;;18.08
80246;BMP280;69558;39.208;-77.226;2023-04-25T06:01:51;100670.94;;;18.10
80246;BMP280;69558;39.208;-77.226;2023-04-25T06:04:19;100667.31;;;18.11
80246;BMP280;69558;39.208;-77.226;2023-04-25T06:06:46;100668.03;;;18.05
80246;BMP280;69558;39.208;-77.226;2023-04-25T06:09:12;100669.81;;;18.05
80246;BMP280;69558;39.208;-77.226;2023-04-25T06:11:40;100672.28;;;18.06
80246;BMP280;69558;39.208;-77.226;2023-04-25T06:14:06;100673.09;;;18.07
80246;BMP280;69558;39.208;-77.226;2023-04-25T06:16:33;100670.47;;;18.07
80246;BMP280;69558;39.208;-77.226;2023-04-25T06:18:59;100662.38;;;18.08
80246;BMP280;69558;39.208;-77.226;2023-04-25T06:21:27;100659.97;;;18.07
80246;BMP280;69558;39.208;-77.226;2023-04-25T06:23:53;100662.59;;;18.07
80246;BMP280;69558;39.208;-77.226;2023-04-25T06:26:19;100642.94;;;17.95
80246;BMP280;69558;39.208;-77.226;2023-04-25T06:28:47;100658.34;;;18.06
80246;BMP280;69558;39.208;-77.226;2023-04-25T06:31:15;100667.03;;;18.06
80246;BMP280;69558;39.208;-77.226;2023-04-25T06:33:41;100665.38;;;18.05
80246;BMP280;69558;39.208;-77.226;2023-04-25T06:36:07;100652.78;;;18.01
80246;BMP280;69558;39.208;-77.226;2023-04-25T06:38:33;100651.44;;;18.05
80246;BMP280;69558;39.208;-77.226;2023-04-25T06:41:00;100652.63;;;18.02
80246;BMP280;69558;39.208;-77.226;2023-04-25T06:43:28;100657.66;;;18.04
80246;BMP280;69558;39.208;-77.226;2023-04-25T06:45:59;100625.78;;;17.84
80246;BMP280;69558;39.208;-77.226;2023-04-25T06:48:27;100655.41;;;18.01
80246;BMP280;69558;39.208;-77.226;2023-04-25T06:50:53;100655.56;;;17.99
80246;BMP280;69558;39.208;-77.226;2023-04-25T06:53:19;100657.88;;;18.02
80246;BMP280;69558;39.208;-77.226;2023-04-25T06:55:46;100648.34;;;18.01
80246;BMP280;69558;39.208;-77.226;2023-04-25T06:58:12;100657.66;;;18.04
80246;BMP280;69558;39.208;-77.226;2023-04-25T07:00:38;100657.66;;;18.04
80246;BMP280;69558;39.208;-77.226;2023-04-25T07:03:04;100654.22;;;18.03
80246;BMP280;69558;39.208;-77.226;2023-04-25T07:05:30;100655.25;;;18.02
80246;BMP280;69558;39.208;-77.226;2023-04-25T07:07:56;100656.22;;;18.01
80246;BMP280;69558;39.208;-77.226;2023-04-25T07:10:23;100647.38;;;17.94
80246;BMP280;69558;39.208;-77.226;2023-04-25T07:12:49;100623.38;;;17.83
80246;BMP280;69558;39.208;-77.226;2023-04-25T07:15:15;100644.09;;;18.00
80246;BMP280;69558;39.208;-77.226;2023-04-25T07:17:41;100654.41;;;18.02
80246;BMP280;69558;39.208;-77.226;2023-04-25T07:20:08;100658.03;;;18.01
80246;BMP280;69558;39.208;-77.226;2023-04-25T07:22:35;100658.03;;;18.01
80246;BMP280;69558;39.208;-77.226;2023-04-25T07:25:02;100651.50;;;17.97
80246;BMP280;69558;39.208;-77.226;2023-04-25T07:27:30;100659.84;;;18.00
80246;BMP280;69558;39.208;-77.226;2023-04-25T07:29:56;100656.91;;;17.95
80246;BMP280;69558;39.208;-77.226;2023-04-25T07:32:23;100661.53;;;17.93
80246;BMP280;69558;39.208;-77.226;2023-04-25T07:34:50;100667.84;;;17.99
80246;BMP280;69558;39.208;-77.226;2023-04-25T07:37:16;100650.72;;;17.88
80246;BMP280;69558;39.208;-77.226;2023-04-25T07:39:47;100662.81;;;17.97
80246;BMP280;69558;39.208;-77.226;2023-04-25T07:42:13;100673.31;;;17.97
80246;BMP280;69558;39.208;-77.226;2023-04-25T07:44:41;100675.94;;;17.97
80246;BMP280;69558;39.208;-77.226;2023-04-25T07:47:08;100666.56;;;17.95
80246;BMP280;69558;39.208;-77.226;2023-04-25T07:49:36;100675.13;;;17.97
80246;BMP280;69558;39.208;-77.226;2023-04-25T07:52:04;100674.31;;;17.96
80246;BMP280;69558;39.208;-77.226;2023-04-25T07:54:31;100674.66;;;17.93
80246;BMP280;69558;39.208;-77.226;2023-04-25T07:56:59;100683.16;;;17.95
80246;BMP280;69558;39.208;-77.226;2023-04-25T07:59:25;100687.56;;;17.95
80246;BMP280;69558;39.208;-77.226;2023-04-25T08:01:51;100687.78;;;17.93
80246;BMP280;69558;39.208;-77.226;2023-04-25T08:04:16;100691.38;;;17.92
80246;BMP280;69558;39.208;-77.226;2023-04-25T08:06:44;100690.41;;;17.93
80246;BMP280;69558;39.208;-77.226;2023-04-25T08:09:12;100688.25;;;17.89
80246;BMP280;69558;39.208;-77.226;2023-04-25T08:11:38;100662.31;;;17.71
80246;BMP280;69558;39.208;-77.226;2023-04-25T08:14:05;100694.81;;;17.93
80246;BMP280;69558;39.208;-77.226;2023-04-25T08:16:31;100698.44;;;17.92
80246;BMP280;69558;39.208;-77.226;2023-04-25T08:18:59;100696.00;;;17.90
80246;BMP280;69558;39.208;-77.226;2023-04-25T08:21:24;100683.22;;;17.87
80246;BMP280;69558;39.208;-77.226;2023-04-25T08:23:53;100700.41;;;17.90
80246;BMP280;69558;39.208;-77.226;2023-04-25T08:26:19;100698.63;;;17.90
80246;BMP280;69558;39.208;-77.226;2023-04-25T08:28:46;100703.00;;;17.90
80246;BMP280;69558;39.208;-77.226;2023-04-25T08:31:12;100694.84;;;17.85
80246;BMP280;69558;39.208;-77.226;2023-04-25T08:33:39;100690.78;;;17.82
80246;BMP280;69558;39.208;-77.226;2023-04-25T08:36:06;100686.66;;;17.79
80246;BMP280;69558;39.208;-77.226;2023-04-25T08:38:33;100693.03;;;17.85
80246;BMP280;69558;39.208;-77.226;2023-04-25T08:41:00;100699.28;;;17.84
80246;BMP280;69558;39.208;-77.226;2023-04-25T08:43:29;100707.00;;;17.86
80246;BMP280;69558;39.208;-77.226;2023-04-25T08:45:59;100698.97;;;17.87
80246;BMP280;69558;39.208;-77.226;2023-04-25T08:48:27;100701.91;;;17.84
80246;BMP280;69558;39.208;-77.226;2023-04-25T08:50:55;100708.63;;;17.87
80246;BMP280;69558;39.208;-77.226;2023-04-25T08:53:26;100703.69;;;17.83
80246;BMP280;69558;39.208;-77.226;2023-04-25T08:55:57;100705.53;;;17.83
80246;BMP280;69558;39.208;-77.226;2023-04-25T08:58:23;100701.59;;;17.79
80246;BMP280;69558;39.208;-77.226;2023-04-25T09:00:51;100703.22;;;17.80
80246;BMP280;69558;39.208;-77.226;2023-04-25T09:03:17;100709.00;;;17.75
80246;BMP280;69558;39.208;-77.226;2023-04-25T09:05:44;100708.84;;;17.77
80246;BMP280;69558;39.208;-77.226;2023-04-25T09:08:10;100698.66;;;17.74
80246;BMP280;69558;39.208;-77.226;2023-04-25T09:10:37;100700.78;;;17.78
80246;BMP280;69558;39.208;-77.226;2023-04-25T09:13:11;100698.97;;;17.79
80246;BMP280;69558;39.208;-77.226;2023-04-25T09:15:53;100692.44;;;17.75
80246;BMP280;69558;39.208;-77.226;2023-04-25T09:18:33;100705.22;;;17.78
80246;BMP280;69558;39.208;-77.226;2023-04-25T09:21:10;100666.81;;;17.46
80246;BMP280;69558;39.208;-77.226;2023-04-25T09:23:44;100705.09;;;17.71
80246;BMP280;69558;39.208;-77.226;2023-04-25T09:26:16;100700.31;;;17.75
80246;BMP280;69558;39.208;-77.226;2023-04-25T09:28:42;100709.16;;;17.74
80246;BMP280;69558;39.208;-77.226;2023-04-25T09:31:11;100687.88;;;17.69
80246;BMP280;69558;39.208;-77.226;2023-04-25T09:33:38;100700.31;;;17.75
80246;BMP280;69558;39.208;-77.226;2023-04-25T09:36:09;100707.22;;;17.76
80246;BMP280;69558;39.208;-77.226;2023-04-25T09:38:45;100709.97;;;17.74
80246;BMP280;69558;39.208;-77.226;2023-04-25T09:41:12;100687.06;;;17.60
80246;BMP280;69558;39.208;-77.226;2023-04-25T09:43:39;100716.25;;;17.73
80246;BMP280;69558;39.208;-77.226;2023-04-25T09:46:09;100696.63;;;17.61
80246;BMP280;69558;39.208;-77.226;2023-04-25T09:48:38;100713.13;;;17.70
80246;BMP280;69558;39.208;-77.226;2023-04-25T09:51:10;100709.88;;;17.68
80246;BMP280;69558;39.208;-77.226;2023-04-25T09:53:39;100722.66;;;17.71
80246;BMP280;69558;39.208;-77.226;2023-04-25T09:56:07;100723.47;;;17.71
80246;BMP280;69558;39.208;-77.226;2023-04-25T09:58:36;100724.44;;;17.70
80246;BMP280;69558;39.208;-77.226;2023-04-25T10:01:04;100727.03;;;17.70
80246;BMP280;69558;39.208;-77.226;2023-04-25T10:03:33;100727.91;;;17.71
80246;BMP280;69558;39.208;-77.226;2023-04-25T10:06:02;100728.84;;;17.70
80246;BMP280;69558;39.208;-77.226;2023-04-25T10:08:34;100730.53;;;17.71
80246;BMP280;69558;39.208;-77.226;2023-04-25T10:11:02;100723.59;;;17.70
80246;BMP280;69558;39.208;-77.226;2023-04-25T10:13:30;100721.19;;;17.68
80246;BMP280;69558;39.208;-77.226;2023-04-25T10:16:04;100718.56;;;17.68
80246;BMP280;69558;39.208;-77.226;2023-04-25T10:18:32;100717.22;;;17.64
80246;BMP280;69558;39.208;-77.226;2023-04-25T10:21:00;100727.56;;;17.66
80246;BMP280;69558;39.208;-77.226;2023-04-25T10:23:29;100715.94;;;17.60
80246;BMP280;69558;39.208;-77.226;2023-04-25T10:25:56;100727.56;;;17.66
80246;BMP280;69558;39.208;-77.226;2023-04-25T10:28:24;100722.84;;;17.61
80246;BMP280;69558;39.208;-77.226;2023-04-25T10:31:01;100732.66;;;17.67
80246;BMP280;69558;39.208;-77.226;2023-04-25T10:33:36;100716.91;;;17.59
80246;BMP280;69558;39.208;-77.226;2023-04-25T10:36:14;100734.81;;;17.64
80246;BMP280;69558;39.208;-77.226;2023-04-25T10:38:43;100736.09;;;17.60
80246;BMP280;69558;39.208;-77.226;2023-04-25T10:41:12;100727.41;;;17.59
80246;BMP280;69558;39.208;-77.226;2023-04-25T10:48:52;100743.84;;;17.61
80246;BMP280;69558;39.208;-77.226;2023-04-25T10:54:07;100742.53;;;17.57
80246;BMP280;69558;39.208;-77.226;2023-04-25T10:59:17;100751.72;;;17.61
80246;BMP280;69558;39.208;-77.226;2023-04-25T11:01:52;100746.28;;;17.55
80246;BMP280;69558;39.208;-77.226;2023-04-25T11:04:33;100773.84;;;17.59
80246;BMP280;69558;39.208;-77.226;2023-04-25T11:09:48;100758.59;;;17.54
80246;BMP280;69558;39.208;-77.226;2023-04-25T11:12:15;100765.97;;;17.59
80246;BMP280;69558;39.208;-77.226;2023-04-25T11:14:42;100759.09;;;17.58
80246;BMP280;69558;39.208;-77.226;2023-04-25T11:17:08;100765.97;;;17.59
80246;BMP280;69558;39.208;-77.226;2023-04-25T11:19:36;100775.66;;;17.58
80246;BMP280;69558;39.208;-77.226;2023-04-25T11:22:03;100761.41;;;17.53
80246;BMP280;69558;39.208;-77.226;2023-04-25T11:24:34;100760.72;;;17.50
80246;BMP280;69558;39.208;-77.226;2023-04-25T11:27:02;100782.69;;;17.58
80246;BMP280;69558;39.208;-77.226;2023-04-25T11:29:32;100779.88;;;17.59
80246;BMP280;69558;39.208;-77.226;2023-04-25T11:31:58;100787.75;;;17.59
80246;BMP280;69558;39.208;-77.226;2023-04-25T11:34:31;100787.94;;;17.58
80246;BMP280;69558;39.208;-77.226;2023-04-25T11:36:59;100793.00;;;17.59
80246;BMP280;69558;39.208;-77.226;2023-04-25T11:39:26;100785.94;;;17.60
80246;BMP280;69558;39.208;-77.226;2023-04-25T11:41:53;100773.22;;;17.48
80246;BMP280;69558;39.208;-77.226;2023-04-25T11:44:21;100794.31;;;17.55
80246;BMP280;69558;39.208;-77.226;2023-04-25T11:46:47;100789.88;;;17.56
80246;BMP280;69558;39.208;-77.226;2023-04-25T11:49:15;100793.00;;;17.59
80246;BMP280;69558;39.208;-77.226;2023-04-25T11:51:42;100798.25;;;17.59
80246;BMP280;69558;39.208;-77.226;2023-04-25T11:54:09;100791.69;;;17.55
80246;BMP280;69558;39.208;-77.226;2023-04-25T11:56:35;100792.69;;;17.54
80246;BMP280;69558;39.208;-77.226;2023-04-25T11:59:03;100794.84;;;17.59
80246;BMP280;69558;39.208;-77.226;2023-04-25T12:01:33;100794.00;;;17.58
80246;BMP280;69558;39.208;-77.226;2023-04-25T12:04:23;100794.00;;;17.58
80246;BMP280;69558;39.208;-77.226;2023-04-25T12:06:52;100808.94;;;17.58
80246;BMP280;69558;39.208;-77.226;2023-04-25T12:09:31;100806.31;;;17.58
80246;BMP280;69558;39.208;-77.226;2023-04-25T12:12:00;100813.38;;;17.57
80246;BMP280;69558;39.208;-77.226;2023-04-25T12:14:34;100802.19;;;17.55
80246;BMP280;69558;39.208;-77.226;2023-04-25T12:17:03;100808.41;;;17.54
80246;BMP280;69558;39.208;-77.226;2023-04-25T12:19:34;100813.38;;;17.57
80246;BMP280;69558;39.208;-77.226;2023-04-25T12:22:02;100816.94;;;17.56
80246;BMP280;69558;39.208;-77.226;2023-04-25T12:24:28;100814.00;;;17.51
80246;BMP280;69558;39.208;-77.226;2023-04-25T12:27:01;100808.75;;;17.51
80246;BMP280;69558;39.208;-77.226;2023-04-25T12:29:29;100812.88;;;17.54
80246;BMP280;69558;39.208;-77.226;2023-04-25T12:31:56;100814.00;;;17.51
80246;BMP280;69558;39.208;-77.226;2023-04-25T12:34:23;100819.94;;;17.53
80246;BMP280;69558;39.208;-77.226;2023-04-25T12:36:50;100814.50;;;17.55
80246;BMP280;69558;39.208;-77.226;2023-04-25T12:39:24;100819.72;;;17.55
80246;BMP280;69558;39.208;-77.226;2023-04-25T12:41:50;100817.31;;;17.53
80246;BMP280;69558;39.208;-77.226;2023-04-25T12:44:20;100814.84;;;17.52
80246;BMP280;69558;39.208;-77.226;2023-04-25T12:46:47;100822.34;;;17.55
80246;BMP280;69558;39.208;-77.226;2023-04-25T12:49:14;100821.38;;;17.56
80246;BMP280;69558;39.208;-77.226;2023-04-25T12:51:40;100819.09;;;17.53
80246;BMP280;69558;39.208;-77.226;2023-04-25T12:54:07;100824.16;;;17.54
80246;BMP280;69558;39.208;-77.226;2023-04-25T12:56:34;100815.81;;;17.50
80246;BMP280;69558;39.208;-77.226;2023-04-25T12:59:00;100808.44;;;17.46
80246;BMP280;69558;39.208;-77.226;2023-04-25T13:01:28;100811.41;;;17.43
80246;BMP280;69558;39.208;-77.226;2023-04-25T13:03:54;100827.78;;;17.45
80246;BMP280;69558;39.208;-77.226;2023-04-25T13:06:22;100822.53;;;17.45
80246;BMP280;69558;39.208;-77.226;2023-04-25T13:08:48;100827.97;;;17.43
80246;BMP280;69558;39.208;-77.226;2023-04-25T13:11:15;100826.47;;;17.41
80246;BMP280;69558;39.208;-77.226;2023-04-25T13:13:42;100826.63;;;17.39
80246;BMP280;69558;39.208;-77.226;2023-04-25T13:16:08;100825.84;;;17.39
80246;BMP280;69558;39.208;-77.226;2023-04-25T13:18:34;100825.84;;;17.39
80246;BMP280;69558;39.208;-77.226;2023-04-25T13:21:01;100818.97;;;17.38
80246;BMP280;69558;39.208;-77.226;2023-04-25T13:23:28;100828.63;;;17.37
80246;BMP280;69558;39.208;-77.226;2023-04-25T13:25:54;100816.03;;;17.33
80246;BMP280;69558;39.208;-77.226;2023-04-25T13:28:24;100832.53;;;17.41
80246;BMP280;69558;39.208;-77.226;2023-04-25T13:30:51;100839.28;;;17.44
80246;BMP280;69558;39.208;-77.226;2023-04-25T13:33:18;100838.47;;;17.43
80246;BMP280;69558;39.208;-77.226;2023-04-25T13:35:46;100850.06;;;17.49
80246;BMP280;69558;39.208;-77.226;2023-04-25T13:38:23;100845.16;;;17.46
80246;BMP280;69558;39.208;-77.226;2023-04-25T13:40:50;100845.34;;;17.53
80246;BMP280;69558;39.208;-77.226;2023-04-25T13:43:22;100834.84;;;17.53
80246;BMP280;69558;39.208;-77.226;2023-04-25T13:45:51;100845.78;;;17.56
80246;BMP280;69558;39.208;-77.226;2023-04-25T13:48:18;100833.88;;;17.54